Time;durP1;ratioP1;P1;durP2;ratioP2;P2;SDS_P1;SDS_P2;PMS_P1;PMS_P2;Temp;Humidity;BMP_temperature;BMP_pressure;BME280_temperature;BME280_humidity;BME280_pressure;Samples;Min_cycle;Max_cycle;Signal;HPM_P1;HPM_P2
2023/10/17 00:00:45;;;;;;;14.57;6.15;;;;;;;;;;5068874;28;20087;-80
2023/10/17 00:03:14;;;;;;;9.48;6.28;;;;;;;;;;5078383;28;20063;-80
2023/10/17 00:05:41;;;;;;;11.75;6.40;;;;;;;;;;5080354;28;20515;-80
2023/10/17 00:08:09;;;;;;;10.77;6.15;;;;;;;;;;5077795;28;20067;-80
2023/10/17 00:10:44;;;;;;;11.90;6.55;;;;;;;;;;5075870;28;20079;-80
2023/10/17 00:13:59;;;;;;;12.05;6.32;;;;;;;;;;5077367;28;20052;-80
2023/10/17 00:16:01;;;;;;;10.30;6.60;;;;;;;;;;5077613;28;20101;-80
2023/10/17 00:18:27;;;;;;;12.82;6.82;;;;;;;;;;5092986;28;20492;-80
2023/10/17 00:20:55;;;;;;;12.32;7.10;;;;;;;;;;5096538;28;20135;-79
2023/10/17 00:23:21;;;;;;;11.05;6.90;;;;;;;;;;5080155;28;20458;-80
2023/10/17 00:25:51;;;;;;;13.07;7.38;;;;;;;;;;5075510;28;20040;-80
2023/10/17 00:28:20;;;;;;;10.77;7.22;;;;;;;;;;5091259;28;20127;-79
2023/10/17 00:30:48;;;;;;;15.35;8.43;;;;;;;;;;5075016;28;20131;-79
2023/10/17 00:33:15;;;;;;;13.15;7.15;;;;;;;;;;5075281;28;20048;-79
2023/10/17 00:35:51;;;;;;;10.90;7.60;;;;;;;;;;5074769;28;20451;-80
2023/10/17 00:38:17;;;;;;;11.88;6.97;;;;;;;;;;5075204;28;20036;-80
2023/10/17 00:40:52;;;;;;;13.45;7.15;;;;;;;;;;5074471;28;20382;-80
2023/10/17 00:43:19;;;;;;;16.00;8.48;;;;;;;;;;5075363;28;20066;-80
2023/10/17 00:45:46;;;;;;;12.75;7.95;;;;;;;;;;5073289;28;20489;-80
2023/10/17 00:48:30;;;;;;;14.43;7.95;;;;;;;;;;5076266;28;20048;-80
2023/10/17 00:50:58;;;;;;;16.60;7.70;;;;;;;;;;5079955;28;20051;-80
2023/10/17 00:53:26;;;;;;;11.25;6.90;;;;;;;;;;5075521;28;20052;-79
2023/10/17 00:55:56;;;;;;;10.50;6.72;;;;;;;;;;5074174;28;20458;-80
2023/10/17 00:58:24;;;;;;;9.10;5.85;;;;;;;;;;5073805;28;20044;-80
2023/10/17 01:00:54;;;;;;;10.35;5.90;;;;;;;;;;5074141;28;20048;-80
2023/10/17 01:03:20;;;;;;;9.93;5.38;;;;;;;;;;5071287;28;20083;-80
2023/10/17 01:05:57;;;;;;;15.55;5.88;;;;;;;;;;5086698;28;20069;-80
2023/10/17 01:08:29;;;;;;;8.63;5.57;;;;;;;;;;5075617;28;20131;-79
2023/10/17 01:11:08;;;;;;;9.48;5.50;;;;;;;;;;5075332;28;20045;-79
2023/10/17 01:13:37;;;;;;;9.20;5.70;;;;;;;;;;5077102;28;20045;-80
2023/10/17 01:16:07;;;;;;;10.00;5.63;;;;;;;;;;5075747;28;20049;-79
2023/10/17 01:18:34;;;;;;;10.57;5.88;;;;;;;;;;5074892;28;20051;-80
2023/10/17 01:21:00;;;;;;;11.00;6.05;;;;;;;;;;5080504;28;20128;-80
2023/10/17 01:23:29;;;;;;;10.95;6.40;;;;;;;;;;5082650;28;20047;-80
2023/10/17 01:25:56;;;;;;;13.18;6.68;;;;;;;;;;5086954;28;20115;-79
2023/10/17 01:28:22;;;;;;;11.73;5.78;;;;;;;;;;5077249;28;20087;-80
2023/10/17 01:30:55;;;;;;;11.25;6.60;;;;;;;;;;5075663;28;20036;-79
2023/10/17 01:33:24;;;;;;;10.25;5.88;;;;;;;;;;5074352;28;20053;-80
2023/10/17 01:35:52;;;;;;;10.10;5.57;;;;;;;;;;5073720;28;20052;-80
2023/10/17 01:38:20;;;;;;;10.30;6.20;;;;;;;;;;5073935;28;20041;-79
2023/10/17 01:40:46;;;;;;;10.38;5.88;;;;;;;;;;5074175;28;20123;-80
2023/10/17 01:43:12;;;;;;;11.77;5.50;;;;;;;;;;5074692;28;20036;-80
2023/10/17 01:45:38;;;;;;;10.38;5.57;;;;;;;;;;5075652;28;20060;-80
2023/10/17 01:48:04;;;;;;;10.00;5.55;;;;;;;;;;5072039;28;20041;-80
2023/10/17 01:50:32;;;;;;;8.20;5.20;;;;;;;;;;5070275;28;20072;-80
2023/10/17 01:53:00;;;;;;;9.45;5.03;;;;;;;;;;5097925;28;20053;-80
2023/10/17 01:55:29;;;;;;;13.25;4.63;;;;;;;;;;5078870;28;20101;-80
2023/10/17 01:57:57;;;;;;;8.98;4.43;;;;;;;;;;5064638;28;20052;-80
2023/10/17 02:02:58;;;;;;;10.63;5.95;;;;;;;;;;5072790;28;20418;-80
2023/10/17 02:05:24;;;;;;;14.20;8.40;;;;;;;;;;5081137;28;20045;-80
2023/10/17 02:07:51;;;;;;;18.05;11.95;;;;;;;;;;5092752;28;20047;-79
2023/10/17 02:10:28;;;;;;;15.65;10.98;;;;;;;;;;5082601;28;20047;-80
2023/10/17 02:12:55;;;;;;;16.50;10.65;;;;;;;;;;5077809;28;20076;-79
2023/10/17 02:15:24;;;;;;;16.83;12.27;;;;;;;;;;5095391;28;20047;-79
2023/10/17 02:17:51;;;;;;;15.18;10.23;;;;;;;;;;5090334;28;20052;-79
2023/10/17 02:20:21;;;;;;;15.07;9.00;;;;;;;;;;5077681;28;20153;-80
2023/10/17 02:22:49;;;;;;;13.77;8.75;;;;;;;;;;5078328;28;20075;-80
2023/10/17 02:25:21;;;;;;;14.85;7.93;;;;;;;;;;5077043;28;20075;-79
2023/10/17 02:27:47;;;;;;;13.82;8.05;;;;;;;;;;5077918;28;20036;-79
2023/10/17 02:30:14;;;;;;;11.13;6.72;;;;;;;;;;5077734;28;20063;-79
2023/10/17 02:32:44;;;;;;;10.88;6.22;;;;;;;;;;5077787;28;20076;-79
2023/10/17 02:35:16;;;;;;;14.90;6.32;;;;;;;;;;5072495;28;20127;-79
2023/10/17 02:37:45;;;;;;;12.00;6.15;;;;;;;;;;5076068;28;20040;-79
2023/10/17 02:40:21;;;;;;;9.18;5.40;;;;;;;;;;5077033;28;20071;-79
2023/10/17 02:42:47;;;;;;;14.02;5.93;;;;;;;;;;5087865;28;20073;-79
2023/10/17 02:45:24;;;;;;;10.23;4.80;;;;;;;;;;5085980;28;20501;-79
2023/10/17 02:47:51;;;;;;;10.68;5.25;;;;;;;;;;5077154;28;20045;-79
2023/10/17 02:50:23;;;;;;;10.27;5.40;;;;;;;;;;5072600;28;20037;-79
2023/10/17 02:52:51;;;;;;;12.38;5.32;;;;;;;;;;5083846;28;20048;-79
2023/10/17 02:55:24;;;;;;;11.90;5.10;;;;;;;;;;5092769;28;20052;-78
2023/10/17 02:57:52;;;;;;;12.60;5.38;;;;;;;;;;5075991;28;20036;-79
2023/10/17 03:00:22;;;;;;;9.65;5.22;;;;;;;;;;5073684;28;20052;-79
2023/10/17 03:02:56;;;;;;;11.88;5.30;;;;;;;;;;5076748;28;20146;-79
2023/10/17 03:05:24;;;;;;;10.15;5.00;;;;;;;;;;5074957;28;20052;-79
2023/10/17 03:07:51;;;;;;;8.98;5.50;;;;;;;;;;5070605;28;20048;-79
2023/10/17 03:13:06;;;;;;;8.75;6.05;;;;;;;;;;5077115;28;20131;-78
2023/10/17 03:15:37;;;;;;;9.57;5.40;;;;;;;;;;5077002;28;20049;-79
2023/10/17 03:18:12;;;;;;;9.60;5.70;;;;;;;;;;5083162;28;20061;-79
2023/10/17 03:20:41;;;;;;;8.95;5.80;;;;;;;;;;5073108;28;20053;-79
2023/10/17 03:23:10;;;;;;;8.98;5.50;;;;;;;;;;5076315;28;20072;-79
2023/10/17 03:25:37;;;;;;;10.27;5.25;;;;;;;;;;5089520;28;20086;-79
2023/10/17 03:28:13;;;;;;;13.18;5.55;;;;;;;;;;5066417;28;20534;-79
2023/10/17 03:30:39;;;;;;;14.23;5.70;;;;;;;;;;5073618;28;20467;-79
2023/10/17 03:33:12;;;;;;;13.05;6.20;;;;;;;;;;5089447;28;20032;-79
2023/10/17 03:35:49;;;;;;;10.45;5.25;;;;;;;;;;5075944;28;20072;-79
2023/10/17 03:38:16;;;;;;;9.20;5.25;;;;;;;;;;5071882;28;20048;-79
2023/10/17 03:40:53;;;;;;;10.77;5.65;;;;;;;;;;5080504;28;20044;-79
2023/10/17 03:43:21;;;;;;;9.88;5.50;;;;;;;;;;5075670;28;20080;-79
2023/10/17 03:45:56;;;;;;;9.90;5.55;;;;;;;;;;5072691;28;20566;-79
2023/10/17 03:48:23;;;;;;;11.27;4.97;;;;;;;;;;5074581;28;20048;-78
2023/10/17 03:51:07;;;;;;;13.50;5.30;;;;;;;;;;5075654;28;20036;-78
2023/10/17 03:53:42;;;;;;;13.10;5.40;;;;;;;;;;5067423;28;20048;-79
2023/10/17 03:56:11;;;;;;;10.40;4.68;;;;;;;;;;5061408;28;20131;-79
2023/10/17 03:58:49;;;;;;;8.98;4.68;;;;;;;;;;5075655;28;20037;-79
2023/10/17 04:01:18;;;;;;;8.65;4.65;;;;;;;;;;5075986;28;20044;-79
2023/10/17 04:03:45;;;;;;;9.48;4.97;;;;;;;;;;5072948;28;20052;-78
2023/10/17 04:08:37;;;;;;;9.30;4.47;;;;;;;;;;5072582;28;20055;-79
2023/10/17 04:13:50;;;;;;;9.25;3.88;;;;;;;;;;5079295;28;20044;-79
2023/10/17 04:16:21;;;;;;;7.43;4.20;;;;;;;;;;5075760;28;20040;-79
2023/10/17 04:18:48;;;;;;;9.55;4.35;;;;;;;;;;5090561;28;20054;-79
2023/10/17 04:21:27;;;;;;;7.80;4.28;;;;;;;;;;5074647;28;20406;-79
2023/10/17 04:23:55;;;;;;;12.23;4.50;;;;;;;;;;5081941;28;20036;-79
2023/10/17 04:26:27;;;;;;;10.00;5.10;;;;;;;;;;5075623;28;20056;-79
2023/10/17 04:28:55;;;;;;;13.35;5.68;;;;;;;;;;5077770;28;20105;-79
2023/10/17 04:31:28;;;;;;;9.63;5.60;;;;;;;;;;5079980;28;20094;-79
2023/10/17 04:34:06;;;;;;;10.77;5.50;;;;;;;;;;5076468;28;20045;-79
2023/10/17 04:36:39;;;;;;;10.90;5.25;;;;;;;;;;5074764;28;20149;-78
2023/10/17 04:39:18;;;;;;;10.27;4.82;;;;;;;;;;5073781;28;20064;-79
2023/10/17 04:44:20;;;;;;;9.10;5.10;;;;;;;;;;5065893;28;20060;-79
2023/10/17 04:47:26;;;;;;;10.77;5.25;;;;;;;;;;5073835;28;20052;-79
2023/10/17 04:49:39;;;;;;;8.90;4.95;;;;;;;;;;5078989;28;20405;-79
2023/10/17 04:52:08;;;;;;;12.40;5.05;;;;;;;;;;5075251;28;20117;-79
2023/10/17 04:57:05;;;;;;;9.98;4.85;;;;;;;;;;5076128;28;20045;-79
2023/10/17 05:07:28;;;;;;;12.13;5.57;;;;;;;;;;5073607;28;20052;-79
2023/10/17 06:18:39;;;;;;;7.53;5.15;;;;;;;;;;5077832;28;20045;-79
2023/10/17 06:34:15;;;;;;;12.20;6.00;;;;;;;;;;5078269;28;20053;-79
2023/10/17 06:36:42;;;;;;;10.13;5.50;;;;;;;;;;5072771;28;20037;-79
2023/10/17 06:39:16;;;;;;;10.82;6.82;;;;;;;;;;5073196;28;20076;-78
2023/10/17 06:41:44;;;;;;;10.57;6.10;;;;;;;;;;5068670;28;20478;-78
2023/10/17 06:44:12;;;;;;;10.73;6.05;;;;;;;;;;5077266;28;20079;-78
2023/10/17 06:46:48;;;;;;;12.23;6.68;;;;;;;;;;5085096;28;20094;-79
2023/10/17 06:54:43;;;;;;;17.65;7.40;;;;;;;;;;5074596;28;20059;-79
2023/10/17 06:57:19;;;;;;;14.68;7.63;;;;;;;;;;5073461;28;20041;-79
2023/10/17 07:00:01;;;;;;;13.20;7.07;;;;;;;;;;5075850;28;20104;-79
2023/10/17 07:02:41;;;;;;;15.23;7.55;;;;;;;;;;5087726;28;20044;-79
2023/10/17 07:05:08;;;;;;;14.43;7.45;;;;;;;;;;5068770;28;20049;-79
2023/10/17 07:07:44;;;;;;;12.60;7.82;;;;;;;;;;5091835;28;20072;-79
2023/10/17 07:10:24;;;;;;;18.80;8.18;;;;;;;;;;5072365;28;20051;-79
2023/10/17 07:13:08;;;;;;;15.10;6.93;;;;;;;;;;5077406;28;20052;-79
2023/10/17 07:15:36;;;;;;;11.15;6.35;;;;;;;;;;5074310;28;20516;-79
2023/10/17 07:18:43;;;;;;;11.45;6.25;;;;;;;;;;5080396;28;20435;-79
2023/10/17 07:21:15;;;;;;;10.10;5.93;;;;;;;;;;5069505;28;20048;-79
2023/10/17 07:23:42;;;;;;;12.90;5.82;;;;;;;;;;5081667;28;20083;-80
2023/10/17 07:26:17;;;;;;;13.45;6.25;;;;;;;;;;5074169;28;20044;-79
2023/10/17 07:28:49;;;;;;;12.40;6.35;;;;;;;;;;5082907;28;20131;-79
2023/10/17 07:31:16;;;;;;;13.60;6.10;;;;;;;;;;5076093;28;20044;-80
2023/10/17 07:33:43;;;;;;;8.98;5.30;;;;;;;;;;5093686;28;20468;-79
2023/10/17 07:36:18;;;;;;;11.98;5.63;;;;;;;;;;5074666;28;20048;-80
2023/10/17 07:38:45;;;;;;;9.57;5.70;;;;;;;;;;5072336;28;20157;-79
2023/10/17 07:41:14;;;;;;;11.00;7.40;;;;;;;;;;5086704;28;20044;-79
2023/10/17 07:43:44;;;;;;;10.75;6.00;;;;;;;;;;5080456;28;20044;-79
2023/10/17 07:46:18;;;;;;;12.00;5.70;;;;;;;;;;5070806;28;20470;-80
2023/10/17 07:48:51;;;;;;;13.48;5.95;;;;;;;;;;5086896;28;20141;-80
2023/10/17 07:51:18;;;;;;;10.10;5.45;;;;;;;;;;5068683;28;20047;-80
2023/10/17 07:53:47;;;;;;;12.13;5.57;;;;;;;;;;5073530;28;20040;-79
2023/10/17 07:56:24;;;;;;;10.45;5.65;;;;;;;;;;5073728;28;20044;-79
2023/10/17 07:58:57;;;;;;;11.93;5.00;;;;;;;;;;5068410;28;20047;-80
2023/10/17 08:01:32;;;;;;;10.55;4.57;;;;;;;;;;5055505;28;20509;-80
2023/10/17 08:06:41;;;;;;;7.75;4.28;;;;;;;;;;5071087;28;20049;-80
2023/10/17 08:11:54;;;;;;;11.25;4.60;;;;;;;;;;5072045;28;20079;-79
2023/10/17 08:17:08;;;;;;;11.10;4.43;;;;;;;;;;5079839;28;20044;-79
2023/10/17 08:22:20;;;;;;;9.80;3.28;;;;;;;;;;5056839;28;20140;-79
2023/10/17 08:24:51;;;;;;;6.75;3.60;;;;;;;;;;5076473;28;20040;-79
2023/10/17 08:27:41;;;;;;;10.20;4.22;;;;;;;;;;5087814;28;20422;-79
2023/10/17 08:30:23;;;;;;;15.75;3.97;;;;;;;;;;5081594;28;20048;-79
2023/10/17 08:35:40;;;;;;;9.20;3.92;;;;;;;;;;5070669;28;20059;-79
2023/10/17 08:38:06;;;;;;;8.90;3.97;;;;;;;;;;5070367;28;20094;-78
2023/10/17 08:40:40;;;;;;;10.13;3.45;;;;;;;;;;5075276;28;20460;-79
2023/10/17 08:43:10;;;;;;;10.48;3.17;;;;;;;;;;5072486;28;20051;-78
2023/10/17 08:45:38;;;;;;;8.02;3.45;;;;;;;;;;5076398;28;20055;-78
2023/10/17 08:48:06;;;;;;;9.35;3.63;;;;;;;;;;5085654;28;20050;-78
2023/10/17 08:50:39;;;;;;;10.90;3.20;;;;;;;;;;5065360;28;20049;-78
2023/10/17 08:53:30;;;;;;;9.07;3.03;;;;;;;;;;5071291;28;20040;-78
2023/10/17 08:55:56;;;;;;;7.65;2.80;;;;;;;;;;5076237;28;20544;-79
2023/10/17 08:58:24;;;;;;;8.93;3.30;;;;;;;;;;5070811;28;20494;-79
2023/10/17 09:00:58;;;;;;;11.02;3.30;;;;;;;;;;5069880;28;20048;-78
2023/10/17 09:03:28;;;;;;;7.43;3.05;;;;;;;;;;5080741;28;20045;-78
2023/10/17 09:05:58;;;;;;;8.65;2.50;;;;;;;;;;5071861;28;20048;-78
2023/10/17 09:08:43;;;;;;;7.30;2.80;;;;;;;;;;5082637;28;20420;-78
2023/10/17 09:11:14;;;;;;;8.20;3.08;;;;;;;;;;5072295;28;20367;-78
2023/10/17 09:16:13;;;;;;;7.00;2.30;;;;;;;;;;5061214;28;20378;-79
2023/10/17 09:18:47;;;;;;;5.60;2.10;;;;;;;;;;5070928;28;20485;-79
2023/10/17 09:21:13;;;;;;;5.93;2.20;;;;;;;;;;5073754;28;20055;-79
2023/10/17 09:23:41;;;;;;;7.43;2.08;;;;;;;;;;5076654;28;20056;-80
2023/10/17 09:26:09;;;;;;;6.35;1.67;;;;;;;;;;5074861;28;20076;-79
2023/10/17 09:28:36;;;;;;;4.70;1.77;;;;;;;;;;5071544;28;20052;-79
2023/10/17 09:31:06;;;;;;;6.88;1.50;;;;;;;;;;5070673;28;20468;-79
2023/10/17 09:33:34;;;;;;;7.47;1.83;;;;;;;;;;5066594;28;20059;-79
2023/10/17 09:36:04;;;;;;;7.15;1.80;;;;;;;;;;5071048;28;20094;-79
2023/10/17 09:38:33;;;;;;;7.10;1.83;;;;;;;;;;5073129;28;20053;-80
2023/10/17 09:41:00;;;;;;;6.10;1.65;;;;;;;;;;5069023;28;20079;-80
2023/10/17 09:43:26;;;;;;;8.65;1.60;;;;;;;;;;5075848;28;20594;-79
2023/10/17 09:45:53;;;;;;;4.47;1.35;;;;;;;;;;5074645;28;20501;-79
2023/10/17 09:48:23;;;;;;;7.97;1.42;;;;;;;;;;5068905;28;20075;-80
2023/10/17 09:50:52;;;;;;;5.88;1.20;;;;;;;;;;5060220;28;20040;-79
2023/10/17 09:53:19;;;;;;;6.00;1.30;;;;;;;;;;5071642;28;20037;-79
2023/10/17 09:55:50;;;;;;;5.47;1.40;;;;;;;;;;5072703;28;20044;-79
2023/10/17 09:58:19;;;;;;;4.60;1.27;;;;;;;;;;5088825;28;20051;-79
2023/10/17 10:00:51;;;;;;;7.70;1.55;;;;;;;;;;5069613;28;20482;-79
2023/10/17 10:03:18;;;;;;;6.68;1.60;;;;;;;;;;5072475;28;20402;-80
2023/10/17 10:05:44;;;;;;;5.97;1.00;;;;;;;;;;5071542;28;20048;-79
2023/10/17 10:08:32;;;;;;;3.40;0.93;;;;;;;;;;5071706;28;20047;-79
2023/10/17 10:10:59;;;;;;;4.40;1.33;;;;;;;;;;5065128;28;20037;-79
2023/10/17 10:13:26;;;;;;;4.85;1.35;;;;;;;;;;5074994;28;20045;-79
2023/10/17 10:15:53;;;;;;;7.13;1.42;;;;;;;;;;5073302;28;20047;-79
2023/10/17 10:18:41;;;;;;;4.40;1.15;;;;;;;;;;5071953;28;20044;-79
2023/10/17 10:21:07;;;;;;;6.50;1.33;;;;;;;;;;5063417;28;20133;-80
2023/10/17 10:23:34;;;;;;;7.05;1.48;;;;;;;;;;5073316;28;20178;-79
2023/10/17 10:26:10;;;;;;;4.30;1.23;;;;;;;;;;5086672;28;20048;-79
2023/10/17 10:28:37;;;;;;;7.40;1.25;;;;;;;;;;5075488;28;20044;-79
2023/10/17 10:31:24;;;;;;;5.32;1.20;;;;;;;;;;5075351;28;20170;-79
2023/10/17 10:33:51;;;;;;;3.78;1.00;;;;;;;;;;5083718;28;20102;-79
2023/10/17 10:36:18;;;;;;;6.00;1.02;;;;;;;;;;5081842;28;20122;-79
2023/10/17 10:38:44;;;;;;;5.57;1.08;;;;;;;;;;5075804;28;20083;-79
2023/10/17 10:41:15;;;;;;;7.32;1.17;;;;;;;;;;5076218;28;20040;-79
2023/10/17 10:43:41;;;;;;;3.33;0.98;;;;;;;;;;5076118;28;20124;-79
2023/10/17 10:46:11;;;;;;;4.18;0.95;;;;;;;;;;5072441;28;20448;-79
2023/10/17 10:48:40;;;;;;;6.22;1.02;;;;;;;;;;5076809;28;20122;-78
2023/10/17 10:51:06;;;;;;;4.88;1.00;;;;;;;;;;5087346;28;20072;-79
2023/10/17 10:53:35;;;;;;;4.85;1.15;;;;;;;;;;5051959;28;20048;-79
2023/10/17 10:56:02;;;;;;;5.82;1.20;;;;;;;;;;5063238;28;20068;-79
2023/10/17 10:58:29;;;;;;;7.97;1.20;;;;;;;;;;5055747;28;20045;-79
2023/10/17 11:00:58;;;;;;;4.55;1.30;;;;;;;;;;5055653;28;20505;-80
2023/10/17 11:03:25;;;;;;;4.80;1.13;;;;;;;;;;5083067;28;20469;-79
2023/10/17 11:05:52;;;;;;;5.75;1.17;;;;;;;;;;5095997;28;20051;-80
2023/10/17 11:08:19;;;;;;;7.43;1.40;;;;;;;;;;5082789;28;20079;-79
2023/10/17 11:10:46;;;;;;;6.45;1.20;;;;;;;;;;5072780;28;20040;-80
2023/10/17 11:13:12;;;;;;;5.97;1.40;;;;;;;;;;5056248;28;20067;-79
2023/10/17 11:15:44;;;;;;;5.40;1.40;;;;;;;;;;5074136;28;20050;-80
2023/10/17 11:18:11;;;;;;;6.70;1.45;;;;;;;;;;5094204;28;20047;-83
2023/10/17 11:20:40;;;;;;;6.35;1.30;;;;;;;;;;5094523;28;20131;-80
2023/10/17 11:23:13;;;;;;;6.60;1.40;;;;;;;;;;5092025;28;20079;-80
2023/10/17 11:25:44;;;;;;;4.05;1.15;;;;;;;;;;5083936;28;20440;-79
2023/10/17 11:28:10;;;;;;;6.35;1.48;;;;;;;;;;5077426;28;20116;-79
2023/10/17 11:30:40;;;;;;;5.55;1.30;;;;;;;;;;5091983;28;20481;-79
2023/10/17 11:33:10;;;;;;;5.18;1.40;;;;;;;;;;5081109;28;20047;-79
2023/10/17 11:35:37;;;;;;;4.93;1.15;;;;;;;;;;5076329;28;20052;-79
2023/10/17 11:38:04;;;;;;;4.90;1.10;;;;;;;;;;5073105;28;20093;-79
2023/10/17 11:40:48;;;;;;;8.35;1.92;;;;;;;;;;5073345;28;20052;-80
2023/10/17 11:43:15;;;;;;;5.78;1.63;;;;;;;;;;5074442;28;20052;-79
2023/10/17 11:45:42;;;;;;;4.68;1.30;;;;;;;;;;5069231;28;20086;-79
2023/10/17 11:48:26;;;;;;;10.07;1.70;;;;;;;;;;5090031;28;20045;-80
2023/10/17 11:51:05;;;;;;;4.90;1.50;;;;;;;;;;5074288;28;20056;-79
2023/10/17 11:53:31;;;;;;;7.03;1.42;;;;;;;;;;5085391;28;20040;-79
2023/10/17 11:55:58;;;;;;;8.10;1.75;;;;;;;;;;5083180;28;20413;-79
2023/10/17 11:58:32;;;;;;;8.05;1.70;;;;;;;;;;5071180;28;20851;-80
2023/10/17 12:00:59;;;;;;;6.05;1.60;;;;;;;;;;5080379;28;20101;-79
2023/10/17 12:03:27;;;;;;;5.72;1.50;;;;;;;;;;5096842;28;20542;-79
2023/10/17 12:05:56;;;;;;;4.50;1.63;;;;;;;;;;5075572;28;20052;-79
2023/10/17 12:08:23;;;;;;;6.15;1.67;;;;;;;;;;5066908;28;20059;-79
2023/10/17 12:10:53;;;;;;;5.03;1.60;;;;;;;;;;5086879;28;20072;-79
2023/10/17 12:13:19;;;;;;;5.15;1.65;;;;;;;;;;5088878;28;20623;-79
2023/10/17 12:15:48;;;;;;;4.07;1.52;;;;;;;;;;5088592;28;20393;-78
2023/10/17 12:18:14;;;;;;;4.20;1.33;;;;;;;;;;5074687;28;20405;-78
2023/10/17 12:20:40;;;;;;;6.55;1.45;;;;;;;;;;5073317;28;20063;-78
2023/10/17 12:23:10;;;;;;;6.60;1.23;;;;;;;;;;5073124;28;20056;-80
2023/10/17 12:25:43;;;;;;;5.70;1.60;;;;;;;;;;5073274;28;20055;-78
2023/10/17 12:28:09;;;;;;;4.05;1.23;;;;;;;;;;5081806;28;20054;-78
2023/10/17 12:30:41;;;;;;;4.85;1.30;;;;;;;;;;5073582;28;20563;-79
2023/10/17 12:33:08;;;;;;;4.20;1.25;;;;;;;;;;5063480;28;20076;-78
2023/10/17 12:35:34;;;;;;;7.03;1.50;;;;;;;;;;5074356;28;20044;-78
2023/10/17 12:38:14;;;;;;;6.85;1.55;;;;;;;;;;5087394;28;20048;-78
2023/10/17 12:40:40;;;;;;;5.80;1.60;;;;;;;;;;5085164;28;20480;-78
2023/10/17 12:43:08;;;;;;;5.53;1.42;;;;;;;;;;5071854;28;20085;-79
2023/10/17 12:45:36;;;;;;;7.05;1.40;;;;;;;;;;5074523;28;20056;-78
2023/10/17 12:48:02;;;;;;;7.32;1.20;;;;;;;;;;5067324;28;20048;-78
2023/10/17 12:50:29;;;;;;;6.35;1.48;;;;;;;;;;5073678;28;20060;-78
2023/10/17 12:52:55;;;;;;;5.53;1.30;;;;;;;;;;5072875;28;20547;-78
2023/10/17 12:55:21;;;;;;;7.05;1.55;;;;;;;;;;5070404;28;20045;-78
2023/10/17 12:57:47;;;;;;;7.55;1.23;;;;;;;;;;5072037;28;20036;-78
2023/10/17 13:00:14;;;;;;;4.95;1.27;;;;;;;;;;5074050;28;20040;-78
2023/10/17 13:02:42;;;;;;;5.00;1.50;;;;;;;;;;5072331;28;20040;-78
2023/10/17 13:05:09;;;;;;;5.22;1.30;;;;;;;;;;5072643;28;20448;-78
2023/10/17 13:07:36;;;;;;;4.80;1.27;;;;;;;;;;5070354;28;20051;-78
2023/10/17 13:10:02;;;;;;;5.47;1.30;;;;;;;;;;5071112;28;20052;-78
2023/10/17 13:12:28;;;;;;;6.82;1.60;;;;;;;;;;5071834;28;20118;-78
2023/10/17 13:14:54;;;;;;;4.40;1.33;;;;;;;;;;5072588;28;20052;-78
2023/10/17 13:17:21;;;;;;;5.15;1.40;;;;;;;;;;5073162;28;20072;-78
2023/10/17 13:19:50;;;;;;;7.25;1.38;;;;;;;;;;5070494;28;20575;-78
2023/10/17 13:22:20;;;;;;;6.82;1.55;;;;;;;;;;5065752;28;20053;-78
2023/10/17 13:24:48;;;;;;;5.97;1.10;;;;;;;;;;5071335;28;20059;-78
2023/10/17 13:27:15;;;;;;;4.57;1.30;;;;;;;;;;5073637;28;20071;-78
2023/10/17 13:29:42;;;;;;;5.05;1.00;;;;;;;;;;5072767;28;20041;-78
2023/10/17 13:32:08;;;;;;;5.30;1.30;;;;;;;;;;5066064;28;20090;-78
2023/10/17 13:34:37;;;;;;;4.50;1.20;;;;;;;;;;5052987;28;20041;-78
2023/10/17 13:37:07;;;;;;;8.52;1.38;;;;;;;;;;5073868;28;20040;-79
2023/10/17 13:39:33;;;;;;;6.03;1.30;;;;;;;;;;5093906;28;20040;-78
2023/10/17 13:42:02;;;;;;;5.20;1.05;;;;;;;;;;5076372;28;20484;-78
2023/10/17 13:44:28;;;;;;;3.55;0.90;;;;;;;;;;5073724;28;20045;-78
2023/10/17 13:46:55;;;;;;;6.40;1.00;;;;;;;;;;5076324;28;20127;-79
2023/10/17 13:49:21;;;;;;;3.22;1.00;;;;;;;;;;5076627;28;20118;-78
2023/10/17 13:51:47;;;;;;;6.72;1.30;;;;;;;;;;5090502;28;20461;-78
2023/10/17 13:54:17;;;;;;;5.40;1.17;;;;;;;;;;5076694;28;20045;-79
2023/10/17 13:56:43;;;;;;;5.18;1.15;;;;;;;;;;5073577;28;20056;-79
2023/10/17 13:59:10;;;;;;;6.65;1.58;;;;;;;;;;5074251;28;20040;-79
2023/10/17 14:01:41;;;;;;;6.00;1.30;;;;;;;;;;5072414;28;20362;-79
2023/10/17 14:04:10;;;;;;;5.93;1.48;;;;;;;;;;5071480;28;20059;-79
2023/10/17 14:06:42;;;;;;;6.85;1.65;;;;;;;;;;5077304;28;20045;-79
2023/10/17 14:09:14;;;;;;;7.00;1.95;;;;;;;;;;5081967;28;20068;-79
2023/10/17 14:11:41;;;;;;;8.25;1.60;;;;;;;;;;5078271;28;20151;-79
2023/10/17 14:14:07;;;;;;;5.10;1.40;;;;;;;;;;5078178;28;20037;-79
2023/10/17 14:16:40;;;;;;;4.85;1.50;;;;;;;;;;5076493;28;20057;-79
2023/10/17 14:19:13;;;;;;;5.00;1.65;;;;;;;;;;5080784;28;20093;-79
2023/10/17 14:21:41;;;;;;;5.28;1.60;;;;;;;;;;5080113;28;20052;-79
2023/10/17 14:24:10;;;;;;;4.65;1.50;;;;;;;;;;5076346;28;20102;-78
2023/10/17 14:26:37;;;;;;;8.55;1.67;;;;;;;;;;5076042;28;20089;-80
2023/10/17 14:29:03;;;;;;;7.68;1.58;;;;;;;;;;5070844;28;20045;-79
2023/10/17 14:31:30;;;;;;;5.75;1.60;;;;;;;;;;5072173;28;20070;-79
2023/10/17 14:33:58;;;;;;;5.30;1.58;;;;;;;;;;5074161;28;20040;-79
2023/10/17 14:36:24;;;;;;;5.80;1.70;;;;;;;;;;5073599;28;20395;-79
2023/10/17 14:38:52;;;;;;;7.60;2.05;;;;;;;;;;5076169;28;20446;-79
2023/10/17 14:41:18;;;;;;;4.57;1.65;;;;;;;;;;5091979;28;20052;-79
2023/10/17 14:43:49;;;;;;;5.30;1.77;;;;;;;;;;5074425;28;20048;-79
2023/10/17 14:46:16;;;;;;;5.25;1.77;;;;;;;;;;5077767;28;20430;-79
2023/10/17 14:48:44;;;;;;;5.78;1.65;;;;;;;;;;5077955;28;20048;-79
2023/10/17 14:51:12;;;;;;;5.60;1.50;;;;;;;;;;5073259;28;20045;-79
2023/10/17 14:53:42;;;;;;;6.28;1.60;;;;;;;;;;5081653;28;20119;-79
2023/10/17 14:56:12;;;;;;;6.70;1.90;;;;;;;;;;5069473;28;20048;-79
2023/10/17 14:58:38;;;;;;;4.30;1.40;;;;;;;;;;5076175;28;20493;-79
2023/10/17 15:01:05;;;;;;;5.35;1.95;;;;;;;;;;5076047;28;20106;-79
2023/10/17 15:03:31;;;;;;;6.07;1.83;;;;;;;;;;5086555;28;20052;-79
2023/10/17 15:05:57;;;;;;;5.55;1.90;;;;;;;;;;5075102;28;20053;-79
2023/10/17 15:08:23;;;;;;;6.38;1.80;;;;;;;;;;5072435;28;20044;-79
2023/10/17 15:10:49;;;;;;;4.95;1.58;;;;;;;;;;5083185;28;20488;-79
2023/10/17 15:13:17;;;;;;;6.07;1.98;;;;;;;;;;5087302;28;20116;-79
2023/10/17 15:15:43;;;;;;;5.97;2.00;;;;;;;;;;5075600;28;20630;-79
2023/10/17 15:18:09;;;;;;;5.88;1.73;;;;;;;;;;5076003;28;20508;-79
2023/10/17 15:20:35;;;;;;;6.63;2.17;;;;;;;;;;5075970;28;20056;-79
2023/10/17 15:23:02;;;;;;;6.30;1.75;;;;;;;;;;5070779;28;20060;-79
2023/10/17 15:25:29;;;;;;;6.63;1.88;;;;;;;;;;5055098;28;20128;-79
2023/10/17 15:27:55;;;;;;;6.25;1.90;;;;;;;;;;5038188;28;20087;-79
2023/10/17 15:30:23;;;;;;;9.85;2.00;;;;;;;;;;5055804;28;20439;-78
2023/10/17 15:32:49;;;;;;;5.78;2.20;;;;;;;;;;5056357;28;20044;-79
2023/10/17 15:35:15;;;;;;;6.75;2.22;;;;;;;;;;5057259;28;20049;-79
2023/10/17 15:37:46;;;;;;;7.38;1.90;;;;;;;;;;5074158;28;20048;-79
2023/10/17 15:40:16;;;;;;;4.53;1.77;;;;;;;;;;5049307;28;20052;-79
2023/10/17 15:42:45;;;;;;;6.97;1.55;;;;;;;;;;5058628;28;20045;-78
2023/10/17 15:45:13;;;;;;;5.22;1.80;;;;;;;;;;5058978;28;20045;-79
2023/10/17 15:47:40;;;;;;;4.78;1.90;;;;;;;;;;5059809;28;20044;-78
2023/10/17 15:50:06;;;;;;;6.95;2.15;;;;;;;;;;5058689;28;20041;-79
2023/10/17 15:52:32;;;;;;;6.47;2.20;;;;;;;;;;5057231;28;20056;-79
2023/10/17 15:54:58;;;;;;;6.05;2.00;;;;;;;;;;5040709;28;20041;-79
2023/10/17 15:57:24;;;;;;;7.10;2.10;;;;;;;;;;5051325;28;20061;-79
2023/10/17 15:59:50;;;;;;;6.47;1.67;;;;;;;;;;5039922;28;20506;-79
2023/10/17 16:02:16;;;;;;;4.60;1.73;;;;;;;;;;5054017;28;20493;-79
2023/10/17 16:04:42;;;;;;;8.00;2.03;;;;;;;;;;5057283;28;20363;-79
2023/10/17 16:07:11;;;;;;;6.78;2.13;;;;;;;;;;5051801;28;20044;-79
2023/10/17 16:09:43;;;;;;;5.90;1.73;;;;;;;;;;5056834;28;20045;-79
2023/10/17 16:12:09;;;;;;;6.93;1.98;;;;;;;;;;5056859;28;20498;-79
2023/10/17 16:14:37;;;;;;;6.30;2.05;;;;;;;;;;5050812;28;20065;-79
2023/10/17 16:17:03;;;;;;;8.10;2.10;;;;;;;;;;5046464;28;20041;-79
2023/10/17 16:19:29;;;;;;;6.65;1.90;;;;;;;;;;5052206;28;20041;-79
2023/10/17 16:21:55;;;;;;;5.63;2.00;;;;;;;;;;5068015;28;20136;-79
2023/10/17 16:24:23;;;;;;;10.13;2.10;;;;;;;;;;5076621;28;20036;-79
2023/10/17 16:26:50;;;;;;;6.80;2.10;;;;;;;;;;5071603;28;20051;-79
2023/10/17 16:29:16;;;;;;;6.28;1.98;;;;;;;;;;5092364;28;20051;-79
2023/10/17 16:31:42;;;;;;;6.65;2.40;;;;;;;;;;5077559;28;20048;-79
2023/10/17 16:34:10;;;;;;;9.07;3.38;;;;;;;;;;5075497;28;20122;-79
2023/10/17 16:36:37;;;;;;;9.18;3.58;;;;;;;;;;5075951;28;20049;-79
2023/10/17 16:39:04;;;;;;;6.95;2.85;;;;;;;;;;5076549;28;20099;-78
2023/10/17 16:41:31;;;;;;;7.68;2.38;;;;;;;;;;5075663;28;20052;-79
2023/10/17 16:43:57;;;;;;;9.65;3.20;;;;;;;;;;5071818;28;20047;-79
2023/10/17 16:46:28;;;;;;;9.02;3.78;;;;;;;;;;5072799;28;20178;-79
2023/10/17 16:48:58;;;;;;;11.65;6.28;;;;;;;;;;5093328;28;20046;-78
2023/10/17 16:51:24;;;;;;;10.75;3.95;;;;;;;;;;5096282;28;20044;-79
2023/10/17 16:53:50;;;;;;;9.57;3.95;;;;;;;;;;5095761;28;20051;-79
2023/10/17 16:56:17;;;;;;;11.65;5.68;;;;;;;;;;5096746;28;20109;-79
2023/10/17 16:58:44;;;;;;;7.43;2.70;;;;;;;;;;5064649;28;20052;-79